createdAt,value
2019-03-31T00:00:10.392Z,19.32
2019-03-31T00:01:13.993Z,20.20
2019-03-31T00:02:22.221Z,20.15
2019-03-31T00:03:25.831Z,19.55
2019-03-31T00:04:29.413Z,20.35
2019-03-31T00:05:33.209Z,19.73
2019-03-31T00:06:36.882Z,20.45
2019-03-31T00:07:40.537Z,20.15
2019-03-31T00:08:44.142Z,21.10
2019-03-31T00:09:47.820Z,20.25
2019-03-31T00:10:51.482Z,20.90
2019-03-31T00:11:55.157Z,19.90
2019-03-31T00:12:58.767Z,21.42
2019-03-31T00:14:02.462Z,20.85
2019-03-31T00:15:07.923Z,21.40
2019-03-31T00:16:11.520Z,21.40
2019-03-31T00:17:15.144Z,20.48
2019-03-31T00:18:18.747Z,21.35
2019-03-31T00:19:22.409Z,18.90
2019-03-31T00:20:26.004Z,19.80
2019-03-31T00:21:29.681Z,19.80
2019-03-31T00:22:33.289Z,20.95
2019-03-31T00:23:36.900Z,20.30
2019-03-31T00:24:40.536Z,21.42
2019-03-31T00:25:45.780Z,19.52
2019-03-31T00:26:49.381Z,19.32
2019-03-31T00:27:52.987Z,20.00
2019-03-31T00:28:56.641Z,19.90
2019-03-31T00:30:00.348Z,20.23
2019-03-31T00:31:04.584Z,19.65
2019-03-31T00:32:08.321Z,21.07
2019-03-31T00:33:11.923Z,19.75
2019-03-31T00:34:15.530Z,20.40
2019-03-31T00:35:19.136Z,20.08
2019-03-31T00:36:22.783Z,20.50
2019-03-31T00:37:26.380Z,20.12
2019-03-31T00:38:29.988Z,19.42
2019-03-31T00:39:33.633Z,20.40
2019-03-31T00:40:37.241Z,19.90
2019-03-31T00:41:40.925Z,20.20
2019-03-31T00:42:44.512Z,20.30
2019-03-31T00:43:48.149Z,21.02
2019-03-31T00:44:51.756Z,19.70
2019-03-31T00:45:55.365Z,21.75
2019-03-31T00:47:02.008Z,19.87
2019-03-31T00:48:04.298Z,20.77
2019-03-31T00:49:07.960Z,19.35
2019-03-31T00:50:11.629Z,19.35
2019-03-31T00:51:15.238Z,20.55
2019-03-31T00:52:18.840Z,18.98
2019-03-31T00:53:22.533Z,19.45
2019-03-31T00:54:27.762Z,20.35
2019-03-31T00:55:31.598Z,21.35
2019-03-31T00:56:35.266Z,20.82
2019-03-31T00:57:38.873Z,18.90
2019-03-31T00:58:42.586Z,20.37
2019-03-31T00:59:46.263Z,20.00
2019-03-31T01:00:52.443Z,19.77
2019-03-31T01:01:57.752Z,21.10
2019-03-31T01:03:01.488Z,20.90
2019-03-31T01:04:06.139Z,20.43
2019-03-31T01:05:09.932Z,20.85
2019-03-31T01:06:15.775Z,20.90
2019-03-31T01:07:19.553Z,20.37
2019-03-31T01:08:24.492Z,20.05
2019-03-31T01:09:31.257Z,19.70
2019-03-31T01:10:35.010Z,19.57
2019-03-31T01:11:38.671Z,20.72
2019-03-31T01:12:42.420Z,19.90
2019-03-31T01:13:46.567Z,19.73
2019-03-31T01:14:50.221Z,19.75
2019-03-31T01:15:55.429Z,19.98
2019-03-31T01:17:00.070Z,19.67
2019-03-31T01:18:04.382Z,20.10
2019-03-31T01:19:08.162Z,20.45
2019-03-31T01:20:12.242Z,20.92
2019-03-31T01:21:16.299Z,20.75
2019-03-31T01:22:19.932Z,20.88
2019-03-31T01:23:23.542Z,20.32
2019-03-31T01:24:27.285Z,20.55
2019-03-31T01:25:30.895Z,20.80
2019-03-31T01:26:34.565Z,18.55
2019-03-31T01:27:38.271Z,18.98
2019-03-31T01:28:41.952Z,18.23
2019-03-31T01:29:45.631Z,18.40
2019-03-31T01:30:49.770Z,19.27
2019-03-31T01:31:54.551Z,19.30
2019-03-31T01:32:58.493Z,18.82
2019-03-31T01:34:02.316Z,16.70
2019-03-31T01:35:08.349Z,17.67
2019-03-31T01:36:12.085Z,17.98
2019-03-31T01:37:15.987Z,17.75
2019-03-31T01:38:19.858Z,18.25
2019-03-31T01:39:24.839Z,19.00
2019-03-31T01:40:28.519Z,17.00
2019-03-31T01:41:32.121Z,17.70
2019-03-31T01:42:35.803Z,17.15
2019-03-31T01:43:39.413Z,19.17
2019-03-31T01:44:43.066Z,19.40
2019-03-31T01:45:46.674Z,18.12
2019-03-31T01:46:50.284Z,18.45
2019-03-31T01:47:53.960Z,18.25
2019-03-31T01:48:57.560Z,17.95
2019-03-31T01:50:01.221Z,19.62
2019-03-31T01:51:05.474Z,19.82
2019-03-31T01:52:09.139Z,21.90
2019-03-31T01:53:12.802Z,22.80
2019-03-31T01:54:16.466Z,24.52
2019-03-31T01:55:20.069Z,23.77
2019-03-31T01:56:24.365Z,25.37
2019-03-31T01:57:28.051Z,23.50
2019-03-31T01:58:31.665Z,24.47
2019-03-31T01:59:35.278Z,25.95
2019-03-31T02:00:43.361Z,23.75
2019-03-31T02:01:47.031Z,24.15
2019-03-31T02:02:50.676Z,25.82
2019-03-31T02:03:54.344Z,24.63
2019-03-31T02:04:58.385Z,23.20
2019-03-31T02:06:02.268Z,24.63
2019-03-31T02:07:07.861Z,23.20
2019-03-31T02:08:11.630Z,23.30
2019-03-31T02:09:15.169Z,24.60
2019-03-31T02:10:18.808Z,24.40
2019-03-31T02:11:22.483Z,25.40
2019-03-31T02:12:26.086Z,25.25
2019-03-31T02:13:29.740Z,24.57
2019-03-31T02:14:33.335Z,25.88
2019-03-31T02:15:36.936Z,23.98
2019-03-31T02:16:40.582Z,24.27
2019-03-31T02:17:44.224Z,25.55
2019-03-31T02:18:47.878Z,25.70
2019-03-31T02:19:51.485Z,25.02
2019-03-31T02:20:55.081Z,25.00
2019-03-31T02:21:58.927Z,24.37
2019-03-31T02:23:02.663Z,25.45
2019-03-31T02:24:06.283Z,25.10
2019-03-31T02:25:09.938Z,25.30
2019-03-31T02:26:13.541Z,24.50
2019-03-31T02:27:17.183Z,25.30
2019-03-31T02:28:21.064Z,22.48
2019-03-31T02:29:24.686Z,24.45
2019-03-31T02:30:28.321Z,24.37
2019-03-31T02:31:31.922Z,22.13
2019-03-31T02:32:35.523Z,24.72
2019-03-31T02:33:39.127Z,23.20
2019-03-31T02:34:42.802Z,24.43
2019-03-31T02:35:46.438Z,23.07
2019-03-31T02:36:50.044Z,23.75
2019-03-31T02:37:53.651Z,23.22
2019-03-31T02:38:57.246Z,23.47
2019-03-31T02:40:00.865Z,23.67
2019-03-31T02:41:04.594Z,24.00
2019-03-31T02:42:08.199Z,22.22
2019-03-31T02:43:11.796Z,21.40
2019-03-31T02:44:15.383Z,23.25
2019-03-31T02:45:18.993Z,21.93
2019-03-31T02:46:22.640Z,21.73
2019-03-31T02:47:26.239Z,21.57
2019-03-31T02:48:29.838Z,21.60
2019-03-31T02:49:33.444Z,22.20
2019-03-31T02:50:48.592Z,22.30
2019-03-31T02:51:52.238Z,21.33
2019-03-31T02:52:55.924Z,21.33
2019-03-31T02:53:59.607Z,21.35
2019-03-31T02:55:03.615Z,20.92
2019-03-31T02:56:08.003Z,20.48
2019-03-31T02:57:12.018Z,21.15
2019-03-31T02:58:16.868Z,22.17
2019-03-31T02:59:20.608Z,21.30
2019-03-31T03:00:24.360Z,21.85
2019-03-31T03:01:29.544Z,20.97
2019-03-31T03:02:42.243Z,21.80
2019-03-31T03:03:40.900Z,21.30
2019-03-31T03:04:46.221Z,20.37
2019-03-31T03:05:50.268Z,20.60
2019-03-31T03:06:55.007Z,21.52
2019-03-31T03:08:00.147Z,19.07
2019-03-31T03:09:06.107Z,18.85
2019-03-31T03:10:09.783Z,21.30
2019-03-31T03:11:16.955Z,19.70
2019-03-31T03:12:22.551Z,21.20
2019-03-31T03:13:29.216Z,21.12
2019-03-31T03:14:34.388Z,21.70
2019-03-31T03:15:41.065Z,19.90
2019-03-31T03:16:44.675Z,20.90
2019-03-31T03:17:48.278Z,18.40
2019-03-31T03:18:52.014Z,19.57
2019-03-31T03:19:55.685Z,19.67
2019-03-31T03:20:59.377Z,18.85
2019-03-31T03:22:02.975Z,19.05
2019-03-31T03:23:06.572Z,19.17
2019-03-31T03:24:10.177Z,19.20
2019-03-31T03:25:13.863Z,18.57
2019-03-31T03:26:17.654Z,19.75
2019-03-31T03:27:21.252Z,19.92
2019-03-31T03:28:24.857Z,19.12
2019-03-31T03:29:28.471Z,19.35
2019-03-31T03:30:32.176Z,19.15
2019-03-31T03:31:35.826Z,20.02
2019-03-31T03:32:39.471Z,18.55
2019-03-31T03:33:43.540Z,19.80
2019-03-31T03:34:47.158Z,19.82
2019-03-31T03:35:51.002Z,20.85
2019-03-31T03:36:54.595Z,20.02
2019-03-31T03:37:58.208Z,19.95
2019-03-31T03:39:01.857Z,19.30
2019-03-31T03:40:06.604Z,18.57
2019-03-31T03:41:10.282Z,18.87
2019-03-31T03:42:13.923Z,19.87
2019-03-31T03:43:17.531Z,19.37
2019-03-31T03:44:21.141Z,18.90
2019-03-31T03:45:24.762Z,19.30
2019-03-31T03:46:28.422Z,18.62
2019-03-31T03:47:32.021Z,18.85
2019-03-31T03:48:35.623Z,18.75
2019-03-31T03:49:39.226Z,19.75
2019-03-31T03:50:42.815Z,19.30
2019-03-31T03:51:46.472Z,20.55
2019-03-31T03:52:50.075Z,18.75
2019-03-31T03:53:53.744Z,20.08
2019-03-31T03:54:57.386Z,19.37
2019-03-31T03:56:00.996Z,19.95
2019-03-31T03:57:04.663Z,19.87
2019-03-31T03:58:08.267Z,19.60
2019-03-31T03:59:11.915Z,20.17
2019-03-31T04:00:15.937Z,18.87
2019-03-31T04:01:20.224Z,18.77
2019-03-31T04:02:23.878Z,20.05
2019-03-31T04:03:30.854Z,19.92
2019-03-31T04:04:32.775Z,21.68
2019-03-31T04:05:36.385Z,21.17
2019-03-31T04:06:39.981Z,20.30
2019-03-31T04:07:43.587Z,20.55
2019-03-31T04:08:47.303Z,19.62
2019-03-31T04:09:50.905Z,20.95
2019-03-31T04:11:06.266Z,20.10
2019-03-31T04:12:09.898Z,20.05
2019-03-31T04:13:13.599Z,18.80
2019-03-31T04:14:17.409Z,18.73
2019-03-31T04:15:21.028Z,19.02
2019-03-31T04:16:24.628Z,20.20
2019-03-31T04:17:28.240Z,18.98
2019-03-31T04:18:31.847Z,18.85
2019-03-31T04:19:35.511Z,19.55
2019-03-31T04:20:39.510Z,18.77
2019-03-31T04:21:43.439Z,19.50
2019-03-31T04:22:47.034Z,20.08
2019-03-31T04:23:50.710Z,20.00
2019-03-31T04:24:54.428Z,19.30
2019-03-31T04:25:58.036Z,17.92
2019-03-31T04:27:01.921Z,20.23
2019-03-31T04:28:05.484Z,18.52
2019-03-31T04:29:09.210Z,17.27
2019-03-31T04:30:12.876Z,20.27
2019-03-31T04:31:16.599Z,18.52
2019-03-31T04:32:20.193Z,18.50
2019-03-31T04:33:23.805Z,17.12
2019-03-31T04:34:27.427Z,18.20
2019-03-31T04:35:31.022Z,18.45
2019-03-31T04:36:34.676Z,18.42
2019-03-31T04:37:38.283Z,18.90
2019-03-31T04:38:41.912Z,17.32
2019-03-31T04:39:45.543Z,18.42
2019-03-31T04:40:49.193Z,18.75
2019-03-31T04:41:52.807Z,19.65
2019-03-31T04:42:56.474Z,18.10
2019-03-31T04:44:00.075Z,18.25
2019-03-31T04:45:04.041Z,18.00
2019-03-31T04:46:07.769Z,18.05
2019-03-31T04:47:11.380Z,18.92
2019-03-31T04:48:14.988Z,18.02
2019-03-31T04:49:18.594Z,19.00
2019-03-31T04:50:22.231Z,19.62
2019-03-31T04:51:25.875Z,18.67
2019-03-31T04:52:29.487Z,19.20
2019-03-31T04:53:33.089Z,20.00
2019-03-31T04:54:36.693Z,20.15
2019-03-31T04:55:40.286Z,19.10
2019-03-31T04:56:43.938Z,19.37
2019-03-31T04:57:47.550Z,19.25
2019-03-31T04:58:51.273Z,18.95
2019-03-31T04:59:54.883Z,20.60
2019-03-31T05:00:58.493Z,19.12
2019-03-31T05:02:02.101Z,18.70
2019-03-31T05:03:05.753Z,18.75
2019-03-31T05:04:09.570Z,20.80
2019-03-31T05:05:13.210Z,19.77
2019-03-31T05:06:16.809Z,19.55
2019-03-31T05:07:20.463Z,19.85
2019-03-31T05:08:24.071Z,20.68
2019-03-31T05:09:27.666Z,20.70
2019-03-31T05:10:31.295Z,20.48
2019-03-31T05:11:35.178Z,20.72
2019-03-31T05:12:38.821Z,20.55
2019-03-31T05:13:42.420Z,21.75
2019-03-31T05:14:46.027Z,20.02
2019-03-31T05:15:49.645Z,21.60
2019-03-31T05:16:53.299Z,21.87
2019-03-31T05:17:56.908Z,21.15
2019-03-31T05:19:00.501Z,22.87
2019-03-31T05:20:05.918Z,21.95
2019-03-31T05:21:09.550Z,22.30
2019-03-31T05:22:13.149Z,22.80
2019-03-31T05:23:16.757Z,22.65
2019-03-31T05:24:20.410Z,23.67
2019-03-31T05:25:24.070Z,22.58
2019-03-31T05:26:27.849Z,24.57
2019-03-31T05:27:31.456Z,24.20
2019-03-31T05:28:35.111Z,25.27
2019-03-31T05:29:38.714Z,25.27
2019-03-31T05:30:42.327Z,23.52
2019-03-31T05:31:45.926Z,23.70
2019-03-31T05:32:49.587Z,23.73
2019-03-31T05:33:53.274Z,24.35
2019-03-31T05:34:56.872Z,24.52
2019-03-31T05:36:00.534Z,23.07
2019-03-31T05:37:04.144Z,23.57
2019-03-31T05:38:07.757Z,24.05
2019-03-31T05:39:11.376Z,24.92
2019-03-31T05:40:15.112Z,23.90
2019-03-31T05:41:18.766Z,23.80
2019-03-31T05:42:22.368Z,23.73
2019-03-31T05:43:26.029Z,24.37
2019-03-31T05:44:29.639Z,24.25
2019-03-31T05:45:33.239Z,24.23
2019-03-31T05:46:36.844Z,23.02
2019-03-31T05:47:40.445Z,22.82
2019-03-31T05:48:44.087Z,22.48
2019-03-31T05:49:47.735Z,20.92
2019-03-31T05:50:51.417Z,21.20
2019-03-31T05:51:55.031Z,22.30
2019-03-31T05:52:58.640Z,21.55
2019-03-31T05:54:02.319Z,20.15
2019-03-31T05:55:06.816Z,20.48
2019-03-31T05:56:10.430Z,20.02
2019-03-31T05:57:14.143Z,20.57
2019-03-31T05:58:17.752Z,21.65
2019-03-31T05:59:21.357Z,20.10
2019-03-31T06:00:36.943Z,20.17
2019-03-31T06:01:40.612Z,19.87
2019-03-31T06:02:44.210Z,19.50
2019-03-31T06:03:47.806Z,20.00
2019-03-31T06:04:51.592Z,21.00
2019-03-31T06:05:55.238Z,19.77
2019-03-31T06:06:58.860Z,21.35
2019-03-31T06:08:02.448Z,19.92
2019-03-31T06:09:06.528Z,19.67
2019-03-31T06:10:10.318Z,19.98
2019-03-31T06:11:13.927Z,22.05
2019-03-31T06:12:17.535Z,21.73
2019-03-31T06:13:21.139Z,20.27
2019-03-31T06:14:24.736Z,20.35
2019-03-31T06:15:28.381Z,20.32
2019-03-31T06:16:31.991Z,21.02
2019-03-31T06:17:35.602Z,22.40
2019-03-31T06:18:39.393Z,21.57
2019-03-31T06:19:43.015Z,20.23
2019-03-31T06:20:46.645Z,22.35
2019-03-31T06:21:50.300Z,22.35
2019-03-31T06:22:53.926Z,22.55
2019-03-31T06:23:57.530Z,22.60
2019-03-31T06:25:01.126Z,22.93
2019-03-31T06:26:04.826Z,23.67
2019-03-31T06:27:08.460Z,22.70
2019-03-31T06:28:12.127Z,22.87
2019-03-31T06:29:15.724Z,23.22
2019-03-31T06:30:19.581Z,23.73
2019-03-31T06:31:23.252Z,23.67
2019-03-31T06:32:26.861Z,24.32
2019-03-31T06:33:30.478Z,23.50
2019-03-31T06:34:46.673Z,26.48
2019-03-31T06:35:39.397Z,24.47
2019-03-31T06:36:43.005Z,27.32
2019-03-31T06:37:46.613Z,28.25
2019-03-31T06:38:50.215Z,29.30
2019-03-31T06:39:53.821Z,32.15
2019-03-31T06:40:58.453Z,30.60
2019-03-31T06:42:02.053Z,32.40
2019-03-31T06:43:05.724Z,33.73
2019-03-31T06:44:09.334Z,33.48
2019-03-31T06:45:13.079Z,32.78
2019-03-31T06:46:16.730Z,35.92
2019-03-31T06:47:20.374Z,33.53
2019-03-31T06:48:23.965Z,34.85
2019-03-31T06:49:27.562Z,33.73
2019-03-31T06:50:31.170Z,34.80
2019-03-31T06:51:34.788Z,34.78
2019-03-31T06:52:38.435Z,33.45
2019-03-31T06:53:42.037Z,33.45
2019-03-31T06:54:45.649Z,33.53
2019-03-31T06:55:49.351Z,33.80
2019-03-31T06:56:53.010Z,30.82
2019-03-31T06:57:56.615Z,34.92
2019-03-31T06:59:00.214Z,32.30
2019-03-31T07:00:07.936Z,32.30
2019-03-31T07:01:11.561Z,32.10
2019-03-31T07:02:15.210Z,31.33
2019-03-31T07:03:18.817Z,32.17
2019-03-31T07:04:22.432Z,31.97
2019-03-31T07:05:26.096Z,32.00
2019-03-31T07:06:29.712Z,31.23
2019-03-31T07:07:33.350Z,32.53
2019-03-31T07:08:36.949Z,30.65
2019-03-31T07:09:40.590Z,29.57
2019-03-31T07:10:44.497Z,31.85
2019-03-31T07:11:48.169Z,30.95
2019-03-31T07:12:51.851Z,30.57
2019-03-31T07:13:55.447Z,32.25
2019-03-31T07:14:59.052Z,30.43
2019-03-31T07:16:02.702Z,34.08
2019-03-31T07:17:06.349Z,30.45
2019-03-31T07:18:09.954Z,33.23
2019-03-31T07:19:13.555Z,34.05
2019-03-31T07:20:17.708Z,31.73
2019-03-31T07:21:21.326Z,33.63
2019-03-31T07:22:24.975Z,32.17
2019-03-31T07:23:28.580Z,32.08
2019-03-31T07:24:32.187Z,32.80
2019-03-31T07:25:37.351Z,33.00
2019-03-31T07:26:41.072Z,34.88
2019-03-31T07:27:44.749Z,34.20
2019-03-31T07:28:48.349Z,35.50
2019-03-31T07:29:51.955Z,34.40
2019-03-31T07:30:55.615Z,34.88
2019-03-31T07:31:59.262Z,35.83
2019-03-31T07:33:02.865Z,33.95
2019-03-31T07:34:06.470Z,34.03
2019-03-31T07:35:18.285Z,36.60
2019-03-31T07:36:16.416Z,35.75
2019-03-31T07:37:20.054Z,35.68
2019-03-31T07:38:23.729Z,36.55
2019-03-31T07:39:27.335Z,37.95
2019-03-31T07:40:31.373Z,39.63
2019-03-31T07:41:36.355Z,37.93
2019-03-31T07:42:40.096Z,40.78
2019-03-31T07:43:43.706Z,36.38
2019-03-31T07:44:47.340Z,40.78
2019-03-31T07:45:51.019Z,38.75
2019-03-31T07:46:54.666Z,39.08
2019-03-31T07:47:58.272Z,37.50
2019-03-31T07:49:01.890Z,38.10
2019-03-31T07:50:10.832Z,39.80
2019-03-31T07:51:14.447Z,40.28
2019-03-31T07:52:18.096Z,40.52
2019-03-31T07:53:21.705Z,41.53
2019-03-31T07:54:25.312Z,40.40
2019-03-31T07:55:28.921Z,41.95
2019-03-31T07:56:32.628Z,41.50
2019-03-31T07:57:36.310Z,38.70
2019-03-31T07:58:39.919Z,38.53
2019-03-31T07:59:43.565Z,39.13
2019-03-31T08:00:47.136Z,37.13
2019-03-31T08:01:50.788Z,38.92
2019-03-31T08:02:54.400Z,37.80
2019-03-31T08:03:58.015Z,38.50
2019-03-31T08:05:01.630Z,38.58
2019-03-31T08:06:05.372Z,38.38
2019-03-31T08:07:09.041Z,39.90
2019-03-31T08:08:12.643Z,37.48
2019-03-31T08:09:16.312Z,36.30
2019-03-31T08:10:21.698Z,37.03
2019-03-31T08:11:25.309Z,35.45
2019-03-31T08:12:28.914Z,39.30
2019-03-31T08:13:32.566Z,38.48
2019-03-31T08:14:36.180Z,34.60
2019-03-31T08:15:39.791Z,36.77
2019-03-31T08:16:43.429Z,37.00
2019-03-31T08:17:47.035Z,37.17
2019-03-31T08:18:50.639Z,34.08
2019-03-31T08:19:54.239Z,32.60
2019-03-31T08:20:57.890Z,31.40
2019-03-31T08:22:01.484Z,30.88
2019-03-31T08:23:05.163Z,32.45
2019-03-31T08:24:08.767Z,31.02
2019-03-31T08:25:13.174Z,31.70
2019-03-31T08:26:16.831Z,30.68
2019-03-31T08:27:20.438Z,28.10
2019-03-31T08:28:24.974Z,26.30
2019-03-31T08:29:28.579Z,26.05
2019-03-31T08:30:32.223Z,26.40
2019-03-31T08:31:35.881Z,27.17
2019-03-31T08:32:39.766Z,27.17
2019-03-31T08:33:43.364Z,27.00
2019-03-31T08:34:47.047Z,27.90
2019-03-31T08:35:50.687Z,30.32
2019-03-31T08:36:54.306Z,29.98
2019-03-31T08:37:57.923Z,29.87
2019-03-31T08:39:01.523Z,29.77
2019-03-31T08:40:07.673Z,28.95
2019-03-31T08:41:11.327Z,27.65
2019-03-31T08:42:14.922Z,29.82
2019-03-31T08:43:18.580Z,29.12
2019-03-31T08:44:22.182Z,29.18
2019-03-31T08:45:25.801Z,30.65
2019-03-31T08:46:29.408Z,27.93
2019-03-31T08:47:33.020Z,29.45
2019-03-31T08:48:36.668Z,28.80
2019-03-31T08:49:40.278Z,26.85
2019-03-31T08:50:43.865Z,28.12
2019-03-31T08:51:47.461Z,27.58
2019-03-31T08:52:51.062Z,27.15
2019-03-31T08:53:54.700Z,28.42
2019-03-31T08:54:58.317Z,28.05
2019-03-31T08:56:01.929Z,28.00
2019-03-31T08:57:05.728Z,27.37
2019-03-31T08:58:09.323Z,26.93
2019-03-31T08:59:12.921Z,27.45
2019-03-31T09:00:24.924Z,25.17
2019-03-31T09:01:28.526Z,24.92
2019-03-31T09:02:33.816Z,25.37
2019-03-31T09:03:37.422Z,26.25
2019-03-31T09:04:41.111Z,25.32
2019-03-31T09:05:44.707Z,25.30
2019-03-31T09:06:48.376Z,26.50
2019-03-31T09:07:52.063Z,25.40
2019-03-31T09:08:55.673Z,24.70
2019-03-31T09:09:59.281Z,24.82
2019-03-31T09:11:02.900Z,25.23
2019-03-31T09:12:06.553Z,26.07
2019-03-31T09:13:10.175Z,24.20
2019-03-31T09:14:13.782Z,25.72
2019-03-31T09:15:17.461Z,23.07
2019-03-31T09:16:21.121Z,24.05
2019-03-31T09:17:24.728Z,23.40
2019-03-31T09:18:28.341Z,23.45
2019-03-31T09:19:31.964Z,21.37
2019-03-31T09:20:35.582Z,22.98
2019-03-31T09:21:39.244Z,23.20
2019-03-31T09:22:42.846Z,20.85
2019-03-31T09:23:46.568Z,20.10
2019-03-31T09:24:50.174Z,19.82
2019-03-31T09:25:53.844Z,19.32
2019-03-31T09:26:57.505Z,17.23
2019-03-31T09:28:01.188Z,18.85
2019-03-31T09:29:04.966Z,16.97
2019-03-31T09:30:12.273Z,19.15
2019-03-31T09:31:15.869Z,18.87
2019-03-31T09:32:19.526Z,16.70
2019-03-31T09:33:23.145Z,17.80
2019-03-31T09:34:26.755Z,18.65
2019-03-31T09:35:30.366Z,17.10
2019-03-31T09:36:33.983Z,17.12
2019-03-31T09:37:37.772Z,18.75
2019-03-31T09:38:41.437Z,18.50
2019-03-31T09:39:45.043Z,19.62
2019-03-31T09:40:48.668Z,19.62
2019-03-31T09:41:52.268Z,16.80
2019-03-31T09:42:55.876Z,17.02
2019-03-31T09:43:59.525Z,17.92
2019-03-31T09:45:03.204Z,18.40
2019-03-31T09:46:07.091Z,18.25
2019-03-31T09:47:10.688Z,17.05
2019-03-31T09:48:14.336Z,17.77
2019-03-31T09:49:18.000Z,17.75
2019-03-31T09:50:21.935Z,15.83
2019-03-31T09:51:25.534Z,15.15
2019-03-31T09:52:29.157Z,15.85
2019-03-31T09:53:32.762Z,15.38
2019-03-31T09:54:36.436Z,14.63
2019-03-31T09:55:40.047Z,15.00
2019-03-31T09:56:43.652Z,14.05
2019-03-31T09:57:47.278Z,14.63
2019-03-31T09:58:51.121Z,15.08
2019-03-31T09:59:54.777Z,15.68
2019-03-31T10:00:58.382Z,14.78
2019-03-31T10:02:02.063Z,15.03
2019-03-31T10:03:05.672Z,14.83
2019-03-31T10:04:09.340Z,13.90
2019-03-31T10:05:14.684Z,15.45
2019-03-31T10:06:29.624Z,14.40
2019-03-31T10:07:23.987Z,16.30
2019-03-31T10:08:27.775Z,15.13
2019-03-31T10:09:31.604Z,15.58
2019-03-31T10:10:35.406Z,14.28
2019-03-31T10:11:39.018Z,14.50
2019-03-31T10:12:42.626Z,14.25
2019-03-31T10:13:46.274Z,12.90
2019-03-31T10:14:49.890Z,13.93
2019-03-31T10:15:53.500Z,12.68
2019-03-31T10:16:57.128Z,13.93
2019-03-31T10:18:00.737Z,13.15
2019-03-31T10:19:04.462Z,13.30
2019-03-31T10:20:08.524Z,13.58
2019-03-31T10:21:12.245Z,13.28
2019-03-31T10:22:15.790Z,12.73
2019-03-31T10:23:19.401Z,11.00
2019-03-31T10:24:23.126Z,11.03
2019-03-31T10:25:26.794Z,12.13
2019-03-31T10:26:32.035Z,12.03
2019-03-31T10:27:35.675Z,11.30
2019-03-31T10:28:39.281Z,11.97
2019-03-31T10:29:42.948Z,12.10
2019-03-31T10:30:46.642Z,12.30
2019-03-31T10:31:50.271Z,11.53
2019-03-31T10:32:53.954Z,12.18
2019-03-31T10:33:57.623Z,13.20
2019-03-31T10:35:01.276Z,11.93
2019-03-31T10:36:04.883Z,12.95
2019-03-31T10:37:08.499Z,13.43
2019-03-31T10:38:12.117Z,11.97
2019-03-31T10:39:15.743Z,13.55
2019-03-31T10:40:19.453Z,12.07
2019-03-31T10:41:23.101Z,11.88
2019-03-31T10:42:26.714Z,12.90
2019-03-31T10:43:30.404Z,13.32
2019-03-31T10:44:34.085Z,13.20
2019-03-31T10:45:37.870Z,14.30
2019-03-31T10:46:41.591Z,14.10
2019-03-31T10:47:45.254Z,13.00
2019-03-31T10:48:48.862Z,14.07
2019-03-31T10:49:52.746Z,13.13
2019-03-31T10:50:56.350Z,12.45
2019-03-31T10:52:00.011Z,12.45
2019-03-31T10:53:03.710Z,13.22
2019-03-31T10:54:07.298Z,12.80
2019-03-31T10:55:11.128Z,12.73
2019-03-31T10:56:14.791Z,12.80
2019-03-31T10:57:18.405Z,12.00
2019-03-31T10:58:22.025Z,12.60
2019-03-31T10:59:25.642Z,12.28
2019-03-31T11:00:34.200Z,11.60
2019-03-31T11:01:37.851Z,11.93
2019-03-31T11:02:41.511Z,13.38
2019-03-31T11:03:45.107Z,12.05
2019-03-31T11:04:48.722Z,11.63
2019-03-31T11:05:53.621Z,12.47
2019-03-31T11:06:59.681Z,12.40
2019-03-31T11:08:02.762Z,12.78
2019-03-31T11:09:06.818Z,13.05
2019-03-31T11:10:10.677Z,13.25
2019-03-31T11:11:14.289Z,13.40
2019-03-31T11:12:17.977Z,12.35
2019-03-31T11:13:21.627Z,13.08
2019-03-31T11:14:25.234Z,13.62
2019-03-31T11:15:28.849Z,13.15
2019-03-31T11:16:32.447Z,12.00
2019-03-31T11:17:36.064Z,12.98
2019-03-31T11:18:39.739Z,14.58
2019-03-31T11:19:43.349Z,13.38
2019-03-31T11:20:46.976Z,13.45
2019-03-31T11:21:52.232Z,13.53
2019-03-31T11:22:57.488Z,13.28
2019-03-31T11:24:01.152Z,13.15
2019-03-31T11:25:19.969Z,14.28
2019-03-31T11:26:12.278Z,13.72
2019-03-31T11:27:15.894Z,14.18
2019-03-31T11:28:19.493Z,14.05
2019-03-31T11:29:23.179Z,14.68
2019-03-31T11:30:26.869Z,14.68
2019-03-31T11:31:31.441Z,13.28
2019-03-31T11:32:35.066Z,14.90
2019-03-31T11:33:38.680Z,15.58
2019-03-31T11:34:42.293Z,15.20
2019-03-31T11:35:45.912Z,13.98
2019-03-31T11:36:49.548Z,14.63
2019-03-31T11:37:53.150Z,14.68
2019-03-31T11:38:56.799Z,14.50
2019-03-31T11:40:00.436Z,15.32
2019-03-31T11:41:04.089Z,15.53
2019-03-31T11:42:07.689Z,17.07
2019-03-31T11:43:11.304Z,14.10
2019-03-31T11:44:14.981Z,13.78
2019-03-31T11:45:18.725Z,15.38
2019-03-31T11:46:22.332Z,13.98
2019-03-31T11:47:25.950Z,16.17
2019-03-31T11:48:29.609Z,15.20
2019-03-31T11:49:33.211Z,15.93
2019-03-31T11:50:36.827Z,13.70
2019-03-31T11:51:40.442Z,13.65
2019-03-31T11:52:44.051Z,14.28
2019-03-31T11:53:47.698Z,13.62
2019-03-31T11:54:51.310Z,14.20
2019-03-31T11:55:54.909Z,13.68
2019-03-31T11:56:58.525Z,12.95
2019-03-31T11:58:02.199Z,12.33
2019-03-31T11:59:05.819Z,13.70
2019-03-31T12:00:18.951Z,12.58
2019-03-31T12:01:22.514Z,12.40
2019-03-31T12:02:27.745Z,13.28
2019-03-31T12:03:31.553Z,13.45
2019-03-31T12:04:35.157Z,12.90
2019-03-31T12:05:38.774Z,12.28
2019-03-31T12:06:42.436Z,12.55
2019-03-31T12:07:47.429Z,11.68
2019-03-31T12:08:51.202Z,11.95
2019-03-31T12:09:54.813Z,11.45
2019-03-31T12:10:58.424Z,11.55
2019-03-31T12:12:02.087Z,12.10
2019-03-31T12:13:05.698Z,12.13
2019-03-31T12:14:09.405Z,11.50
2019-03-31T12:15:13.264Z,11.43
2019-03-31T12:16:16.866Z,10.85
2019-03-31T12:17:20.507Z,11.18
2019-03-31T12:18:24.118Z,10.20
2019-03-31T12:19:27.728Z,9.80
2019-03-31T12:20:31.331Z,10.45
2019-03-31T12:21:34.932Z,9.35
2019-03-31T12:22:38.583Z,9.33
2019-03-31T12:23:42.305Z,9.90
2019-03-31T12:24:45.920Z,9.33
2019-03-31T12:25:49.504Z,9.40
2019-03-31T12:26:53.176Z,9.13
2019-03-31T12:27:56.811Z,9.05
2019-03-31T12:29:00.462Z,9.18
2019-03-31T12:30:06.329Z,8.30
2019-03-31T12:31:09.920Z,8.40
2019-03-31T12:32:13.523Z,9.50
2019-03-31T12:33:17.244Z,8.48
2019-03-31T12:34:20.851Z,8.15
2019-03-31T12:35:24.444Z,7.67
2019-03-31T12:36:28.097Z,8.08
2019-03-31T12:37:42.344Z,7.67
2019-03-31T12:38:37.071Z,8.10
2019-03-31T12:39:40.756Z,7.90
2019-03-31T12:40:44.383Z,7.85
2019-03-31T12:41:47.954Z,7.87
2019-03-31T12:42:51.555Z,7.25
2019-03-31T12:43:55.221Z,8.35
2019-03-31T12:44:58.818Z,8.25
2019-03-31T12:46:04.513Z,7.58
2019-03-31T12:47:08.190Z,6.95
2019-03-31T12:48:11.768Z,7.85
2019-03-31T12:49:15.368Z,7.85
2019-03-31T12:50:18.976Z,6.70
2019-03-31T12:51:22.699Z,7.03
2019-03-31T12:52:26.304Z,6.72
2019-03-31T12:53:29.981Z,6.97
2019-03-31T12:54:33.587Z,7.00
2019-03-31T12:55:37.197Z,7.72
2019-03-31T12:56:40.838Z,6.25
2019-03-31T12:57:44.454Z,6.70
2019-03-31T12:58:48.078Z,6.83
2019-03-31T12:59:51.682Z,6.60
2019-03-31T13:00:55.352Z,6.97
2019-03-31T13:01:59.051Z,7.08
2019-03-31T13:03:02.647Z,7.28
2019-03-31T13:04:06.241Z,6.92
2019-03-31T13:05:10.034Z,6.65
2019-03-31T13:06:13.755Z,6.60
2019-03-31T13:07:17.355Z,6.85
2019-03-31T13:08:21.005Z,6.90
2019-03-31T13:09:24.603Z,6.80
2019-03-31T13:10:28.213Z,6.30
2019-03-31T13:11:31.849Z,6.85
2019-03-31T13:12:35.507Z,6.90
2019-03-31T13:13:39.098Z,6.65
2019-03-31T13:14:42.702Z,6.20
2019-03-31T13:15:46.302Z,6.33
2019-03-31T13:16:49.955Z,7.08
2019-03-31T13:17:53.624Z,7.05
2019-03-31T13:18:57.265Z,7.08
2019-03-31T13:20:00.861Z,8.03
2019-03-31T13:21:04.639Z,7.17
2019-03-31T13:22:08.241Z,6.60
2019-03-31T13:23:11.958Z,7.80
2019-03-31T13:24:15.559Z,7.37
2019-03-31T13:25:19.211Z,6.72
2019-03-31T13:26:22.896Z,6.30
2019-03-31T13:27:26.495Z,7.22
2019-03-31T13:28:30.175Z,7.53
2019-03-31T13:29:33.776Z,7.00
2019-03-31T13:30:37.440Z,6.33
2019-03-31T13:31:41.033Z,6.60
2019-03-31T13:32:44.640Z,7.42
2019-03-31T13:33:48.555Z,6.33
2019-03-31T13:34:52.147Z,6.30
2019-03-31T13:35:55.878Z,6.85
2019-03-31T13:36:59.522Z,7.22
2019-03-31T13:38:11.098Z,8.20
2019-03-31T13:39:08.534Z,7.42
2019-03-31T13:40:12.623Z,6.90
2019-03-31T13:41:16.274Z,6.85
2019-03-31T13:42:20.052Z,6.60
2019-03-31T13:43:23.653Z,7.00
2019-03-31T13:44:27.275Z,7.60
2019-03-31T13:45:30.887Z,6.72